sensor_id;sensor_type;location;lat;lon;timestamp;P1;durP1;ratioP1;P2;durP2;ratioP2
19891;SDS011;10108;50.142;8.724;2023-06-26T00:00:25;14.40;;;9.63;;
19891;SDS011;10108;50.142;8.724;2023-06-26T00:02:51;13.68;;;10.20;;
19891;SDS011;10108;50.142;8.724;2023-06-26T00:05:17;11.90;;;9.00;;
19891;SDS011;10108;50.142;8.724;2023-06-26T00:07:43;13.98;;;10.18;;
19891;SDS011;10108;50.142;8.724;2023-06-26T00:10:09;14.23;;;9.75;;
19891;SDS011;10108;50.142;8.724;2023-06-26T00:12:36;12.68;;;9.25;;
19891;SDS011;10108;50.142;8.724;2023-06-26T00:15:02;13.55;;;9.05;;
19891;SDS011;10108;50.142;8.724;2023-06-26T00:17:28;13.27;;;9.55;;
19891;SDS011;10108;50.142;8.724;2023-06-26T00:19:55;12.68;;;9.38;;
19891;SDS011;10108;50.142;8.724;2023-06-26T00:22:21;13.00;;;9.23;;
19891;SDS011;10108;50.142;8.724;2023-06-26T00:24:47;13.77;;;9.68;;
19891;SDS011;10108;50.142;8.724;2023-06-26T00:27:13;13.90;;;9.43;;
19891;SDS011;10108;50.142;8.724;2023-06-26T00:29:39;13.02;;;9.30;;
19891;SDS011;10108;50.142;8.724;2023-06-26T00:32:06;13.88;;;9.40;;
19891;SDS011;10108;50.142;8.724;2023-06-26T00:34:33;14.20;;;9.65;;
19891;SDS011;10108;50.142;8.724;2023-06-26T00:36:59;13.68;;;9.00;;
19891;SDS011;10108;50.142;8.724;2023-06-26T00:39:26;13.85;;;9.90;;
19891;SDS011;10108;50.142;8.724;2023-06-26T00:41:52;13.23;;;9.30;;
19891;SDS011;10108;50.142;8.724;2023-06-26T00:44:21;15.27;;;10.20;;
19891;SDS011;10108;50.142;8.724;2023-06-26T00:46:47;14.18;;;10.15;;
19891;SDS011;10108;50.142;8.724;2023-06-26T00:49:14;13.38;;;9.40;;
19891;SDS011;10108;50.142;8.724;2023-06-26T00:51:40;12.32;;;9.48;;
19891;SDS011;10108;50.142;8.724;2023-06-26T00:54:07;15.75;;;10.10;;
19891;SDS011;10108;50.142;8.724;2023-06-26T00:56:33;15.85;;;10.45;;
19891;SDS011;10108;50.142;8.724;2023-06-26T00:59:00;13.75;;;10.10;;
19891;SDS011;10108;50.142;8.724;2023-06-26T01:01:26;13.40;;;10.00;;
19891;SDS011;10108;50.142;8.724;2023-06-26T01:03:52;13.05;;;9.65;;
19891;SDS011;10108;50.142;8.724;2023-06-26T01:06:20;14.68;;;9.75;;
19891;SDS011;10108;50.142;8.724;2023-06-26T01:08:49;14.07;;;10.38;;
19891;SDS011;10108;50.142;8.724;2023-06-26T01:11:17;13.20;;;10.15;;
19891;SDS011;10108;50.142;8.724;2023-06-26T01:13:43;16.55;;;10.50;;
19891;SDS011;10108;50.142;8.724;2023-06-26T01:16:10;13.25;;;9.65;;
19891;SDS011;10108;50.142;8.724;2023-06-26T01:18:38;15.43;;;10.65;;
19891;SDS011;10108;50.142;8.724;2023-06-26T01:21:07;14.15;;;10.25;;
19891;SDS011;10108;50.142;8.724;2023-06-26T01:23:37;13.00;;;9.90;;
19891;SDS011;10108;50.142;8.724;2023-06-26T01:26:22;15.85;;;10.63;;
19891;SDS011;10108;50.142;8.724;2023-06-26T01:28:51;15.88;;;10.45;;
19891;SDS011;10108;50.142;8.724;2023-06-26T01:31:19;13.10;;;10.00;;
19891;SDS011;10108;50.142;8.724;2023-06-26T01:33:46;16.40;;;10.88;;
19891;SDS011;10108;50.142;8.724;2023-06-26T01:36:12;17.40;;;10.30;;
19891;SDS011;10108;50.142;8.724;2023-06-26T01:38:39;14.50;;;10.25;;
19891;SDS011;10108;50.142;8.724;2023-06-26T01:41:05;13.23;;;10.00;;
19891;SDS011;10108;50.142;8.724;2023-06-26T01:46:33;15.35;;;10.88;;
19891;SDS011;10108;50.142;8.724;2023-06-26T01:52:14;16.15;;;10.75;;
19891;SDS011;10108;50.142;8.724;2023-06-26T01:55:15;15.23;;;11.18;;
19891;SDS011;10108;50.142;8.724;2023-06-26T01:58:02;16.02;;;11.35;;
19891;SDS011;10108;50.142;8.724;2023-06-26T02:00:29;14.45;;;10.70;;
19891;SDS011;10108;50.142;8.724;2023-06-26T02:02:57;17.45;;;10.90;;
19891;SDS011;10108;50.142;8.724;2023-06-26T02:05:23;15.02;;;10.93;;
19891;SDS011;10108;50.142;8.724;2023-06-26T02:07:50;15.80;;;11.35;;
19891;SDS011;10108;50.142;8.724;2023-06-26T02:10:17;16.23;;;11.07;;
19891;SDS011;10108;50.142;8.724;2023-06-26T02:12:43;14.50;;;10.77;;
19891;SDS011;10108;50.142;8.724;2023-06-26T02:15:11;15.98;;;11.45;;
19891;SDS011;10108;50.142;8.724;2023-06-26T02:17:39;15.27;;;11.20;;
19891;SDS011;10108;50.142;8.724;2023-06-26T02:20:05;14.68;;;10.93;;
19891;SDS011;10108;50.142;8.724;2023-06-26T02:22:35;16.95;;;11.52;;
19891;SDS011;10108;50.142;8.724;2023-06-26T02:25:01;15.35;;;11.75;;
19891;SDS011;10108;50.142;8.724;2023-06-26T02:27:27;15.48;;;11.38;;
19891;SDS011;10108;50.142;8.724;2023-06-26T02:29:54;15.50;;;10.52;;
19891;SDS011;10108;50.142;8.724;2023-06-26T02:32:20;14.95;;;11.25;;
19891;SDS011;10108;50.142;8.724;2023-06-26T02:34:49;16.00;;;11.98;;
19891;SDS011;10108;50.142;8.724;2023-06-26T02:37:17;17.42;;;12.30;;
19891;SDS011;10108;50.142;8.724;2023-06-26T02:39:44;17.95;;;11.88;;
19891;SDS011;10108;50.142;8.724;2023-06-26T02:42:10;15.82;;;11.77;;
19891;SDS011;10108;50.142;8.724;2023-06-26T02:44:36;15.93;;;11.73;;
19891;SDS011;10108;50.142;8.724;2023-06-26T02:47:02;15.65;;;11.88;;
19891;SDS011;10108;50.142;8.724;2023-06-26T02:49:29;17.35;;;12.63;;
19891;SDS011;10108;50.142;8.724;2023-06-26T02:51:55;15.45;;;11.68;;
19891;SDS011;10108;50.142;8.724;2023-06-26T02:54:27;17.00;;;12.55;;
19891;SDS011;10108;50.142;8.724;2023-06-26T02:56:58;16.42;;;11.77;;
19891;SDS011;10108;50.142;8.724;2023-06-26T02:59:28;16.38;;;12.38;;
19891;SDS011;10108;50.142;8.724;2023-06-26T03:01:55;15.68;;;11.52;;
19891;SDS011;10108;50.142;8.724;2023-06-26T03:04:27;18.17;;;11.65;;
19891;SDS011;10108;50.142;8.724;2023-06-26T03:06:53;17.48;;;12.10;;
19891;SDS011;10108;50.142;8.724;2023-06-26T03:09:19;18.45;;;12.35;;
19891;SDS011;10108;50.142;8.724;2023-06-26T03:11:45;16.35;;;12.13;;
19891;SDS011;10108;50.142;8.724;2023-06-26T03:14:12;15.85;;;11.40;;
19891;SDS011;10108;50.142;8.724;2023-06-26T03:16:38;15.00;;;11.73;;
19891;SDS011;10108;50.142;8.724;2023-06-26T03:19:04;17.58;;;11.73;;
19891;SDS011;10108;50.142;8.724;2023-06-26T03:21:38;16.33;;;11.77;;
19891;SDS011;10108;50.142;8.724;2023-06-26T03:24:05;16.08;;;11.73;;
19891;SDS011;10108;50.142;8.724;2023-06-26T03:26:31;16.00;;;11.75;;
19891;SDS011;10108;50.142;8.724;2023-06-26T03:28:59;16.10;;;11.85;;
19891;SDS011;10108;50.142;8.724;2023-06-26T03:31:25;15.60;;;11.45;;
19891;SDS011;10108;50.142;8.724;2023-06-26T03:33:52;17.67;;;12.50;;
19891;SDS011;10108;50.142;8.724;2023-06-26T03:36:18;17.05;;;11.77;;
19891;SDS011;10108;50.142;8.724;2023-06-26T03:38:44;16.58;;;11.57;;
19891;SDS011;10108;50.142;8.724;2023-06-26T03:41:11;16.23;;;11.52;;
19891;SDS011;10108;50.142;8.724;2023-06-26T03:43:38;14.55;;;11.50;;
19891;SDS011;10108;50.142;8.724;2023-06-26T03:46:17;16.25;;;11.40;;
19891;SDS011;10108;50.142;8.724;2023-06-26T03:48:43;15.90;;;11.35;;
19891;SDS011;10108;50.142;8.724;2023-06-26T03:51:10;15.43;;;11.68;;
19891;SDS011;10108;50.142;8.724;2023-06-26T03:53:37;15.50;;;11.68;;
19891;SDS011;10108;50.142;8.724;2023-06-26T03:56:04;15.50;;;11.23;;
19891;SDS011;10108;50.142;8.724;2023-06-26T03:58:30;15.60;;;11.63;;
19891;SDS011;10108;50.142;8.724;2023-06-26T04:00:56;16.60;;;11.57;;
19891;SDS011;10108;50.142;8.724;2023-06-26T04:03:23;17.67;;;11.50;;
19891;SDS011;10108;50.142;8.724;2023-06-26T04:05:50;16.92;;;11.75;;
19891;SDS011;10108;50.142;8.724;2023-06-26T04:08:16;14.90;;;11.52;;
19891;SDS011;10108;50.142;8.724;2023-06-26T04:10:42;14.85;;;11.40;;
19891;SDS011;10108;50.142;8.724;2023-06-26T04:13:11;14.55;;;11.10;;
19891;SDS011;10108;50.142;8.724;2023-06-26T04:15:37;18.90;;;12.02;;
19891;SDS011;10108;50.142;8.724;2023-06-26T04:18:03;14.63;;;11.52;;
19891;SDS011;10108;50.142;8.724;2023-06-26T04:20:29;17.10;;;11.50;;
19891;SDS011;10108;50.142;8.724;2023-06-26T04:22:56;17.00;;;11.55;;
19891;SDS011;10108;50.142;8.724;2023-06-26T04:25:22;16.05;;;12.10;;
19891;SDS011;10108;50.142;8.724;2023-06-26T04:27:48;14.75;;;11.73;;
19891;SDS011;10108;50.142;8.724;2023-06-26T04:30:14;17.13;;;11.82;;
19891;SDS011;10108;50.142;8.724;2023-06-26T04:32:41;16.88;;;12.38;;
19891;SDS011;10108;50.142;8.724;2023-06-26T04:35:07;15.27;;;12.00;;
19891;SDS011;10108;50.142;8.724;2023-06-26T04:37:33;14.90;;;12.15;;
19891;SDS011;10108;50.142;8.724;2023-06-26T04:39:59;15.75;;;12.45;;
19891;SDS011;10108;50.142;8.724;2023-06-26T04:42:25;18.55;;;12.43;;
19891;SDS011;10108;50.142;8.724;2023-06-26T04:44:51;15.95;;;11.88;;
19891;SDS011;10108;50.142;8.724;2023-06-26T04:47:17;15.93;;;12.48;;
19891;SDS011;10108;50.142;8.724;2023-06-26T04:49:43;16.80;;;11.80;;
19891;SDS011;10108;50.142;8.724;2023-06-26T04:52:11;15.60;;;11.57;;
19891;SDS011;10108;50.142;8.724;2023-06-26T04:54:40;17.27;;;12.13;;
19891;SDS011;10108;50.142;8.724;2023-06-26T04:57:07;16.33;;;12.18;;
19891;SDS011;10108;50.142;8.724;2023-06-26T04:59:34;15.32;;;12.43;;
19891;SDS011;10108;50.142;8.724;2023-06-26T05:02:00;15.48;;;12.25;;
19891;SDS011;10108;50.142;8.724;2023-06-26T05:04:26;18.02;;;12.45;;
19891;SDS011;10108;50.142;8.724;2023-06-26T05:06:52;15.68;;;12.50;;
19891;SDS011;10108;50.142;8.724;2023-06-26T05:09:18;16.35;;;12.60;;
19891;SDS011;10108;50.142;8.724;2023-06-26T05:11:45;15.88;;;12.05;;
19891;SDS011;10108;50.142;8.724;2023-06-26T05:14:11;18.45;;;12.65;;
19891;SDS011;10108;50.142;8.724;2023-06-26T05:16:38;19.38;;;13.25;;
19891;SDS011;10108;50.142;8.724;2023-06-26T05:19:05;17.42;;;13.20;;
19891;SDS011;10108;50.142;8.724;2023-06-26T05:21:31;16.80;;;13.05;;
19891;SDS011;10108;50.142;8.724;2023-06-26T05:23:57;19.38;;;13.20;;
19891;SDS011;10108;50.142;8.724;2023-06-26T05:26:24;16.23;;;12.75;;
19891;SDS011;10108;50.142;8.724;2023-06-26T05:28:51;18.73;;;13.60;;
19891;SDS011;10108;50.142;8.724;2023-06-26T05:31:17;17.80;;;13.27;;
19891;SDS011;10108;50.142;8.724;2023-06-26T05:33:44;19.48;;;12.82;;
19891;SDS011;10108;50.142;8.724;2023-06-26T05:36:12;20.15;;;13.82;;
19891;SDS011;10108;50.142;8.724;2023-06-26T05:38:39;17.42;;;13.68;;
19891;SDS011;10108;50.142;8.724;2023-06-26T05:41:06;18.45;;;13.13;;
19891;SDS011;10108;50.142;8.724;2023-06-26T05:43:32;17.83;;;13.45;;
19891;SDS011;10108;50.142;8.724;2023-06-26T05:45:58;18.15;;;12.93;;
19891;SDS011;10108;50.142;8.724;2023-06-26T05:48:24;20.67;;;13.18;;
19891;SDS011;10108;50.142;8.724;2023-06-26T05:50:50;19.75;;;14.05;;
19891;SDS011;10108;50.142;8.724;2023-06-26T05:53:17;17.05;;;13.07;;
19891;SDS011;10108;50.142;8.724;2023-06-26T05:55:43;18.05;;;13.27;;
19891;SDS011;10108;50.142;8.724;2023-06-26T05:58:10;16.80;;;12.90;;
19891;SDS011;10108;50.142;8.724;2023-06-26T06:00:38;18.70;;;12.75;;
19891;SDS011;10108;50.142;8.724;2023-06-26T06:03:05;19.92;;;13.07;;
19891;SDS011;10108;50.142;8.724;2023-06-26T06:05:31;18.02;;;12.43;;
19891;SDS011;10108;50.142;8.724;2023-06-26T06:07:58;16.17;;;13.07;;
19891;SDS011;10108;50.142;8.724;2023-06-26T06:10:24;19.90;;;12.55;;
19891;SDS011;10108;50.142;8.724;2023-06-26T06:12:50;23.83;;;13.70;;
19891;SDS011;10108;50.142;8.724;2023-06-26T06:15:16;21.73;;;12.60;;
19891;SDS011;10108;50.142;8.724;2023-06-26T06:17:43;18.20;;;12.25;;
19891;SDS011;10108;50.142;8.724;2023-06-26T06:20:09;16.35;;;11.80;;
19891;SDS011;10108;50.142;8.724;2023-06-26T06:22:36;17.10;;;12.18;;
19891;SDS011;10108;50.142;8.724;2023-06-26T06:25:02;16.70;;;11.88;;
19891;SDS011;10108;50.142;8.724;2023-06-26T06:27:29;16.65;;;11.85;;
19891;SDS011;10108;50.142;8.724;2023-06-26T06:29:56;15.68;;;11.80;;
19891;SDS011;10108;50.142;8.724;2023-06-26T06:32:22;17.75;;;12.52;;
19891;SDS011;10108;50.142;8.724;2023-06-26T06:34:48;18.98;;;12.55;;
19891;SDS011;10108;50.142;8.724;2023-06-26T06:37:14;18.27;;;12.38;;
19891;SDS011;10108;50.142;8.724;2023-06-26T06:39:41;15.75;;;11.13;;
19891;SDS011;10108;50.142;8.724;2023-06-26T06:42:07;14.77;;;11.73;;
19891;SDS011;10108;50.142;8.724;2023-06-26T06:44:33;14.52;;;11.13;;
19891;SDS011;10108;50.142;8.724;2023-06-26T06:46:59;15.02;;;10.57;;
19891;SDS011;10108;50.142;8.724;2023-06-26T06:49:25;19.05;;;11.45;;
19891;SDS011;10108;50.142;8.724;2023-06-26T06:51:51;16.92;;;11.80;;
19891;SDS011;10108;50.142;8.724;2023-06-26T06:54:18;17.17;;;11.77;;
19891;SDS011;10108;50.142;8.724;2023-06-26T06:56:45;15.30;;;11.48;;
19891;SDS011;10108;50.142;8.724;2023-06-26T06:59:11;18.27;;;11.73;;
19891;SDS011;10108;50.142;8.724;2023-06-26T07:01:38;15.45;;;11.52;;
19891;SDS011;10108;50.142;8.724;2023-06-26T07:04:05;17.60;;;11.55;;
19891;SDS011;10108;50.142;8.724;2023-06-26T07:06:31;16.75;;;11.32;;
19891;SDS011;10108;50.142;8.724;2023-06-26T07:08:57;18.85;;;11.93;;
19891;SDS011;10108;50.142;8.724;2023-06-26T07:11:24;15.48;;;11.95;;
19891;SDS011;10108;50.142;8.724;2023-06-26T07:13:50;14.73;;;11.20;;
19891;SDS011;10108;50.142;8.724;2023-06-26T07:16:16;16.85;;;11.30;;
19891;SDS011;10108;50.142;8.724;2023-06-26T07:18:42;16.33;;;10.95;;
19891;SDS011;10108;50.142;8.724;2023-06-26T07:21:09;14.77;;;10.30;;
19891;SDS011;10108;50.142;8.724;2023-06-26T07:23:35;21.45;;;11.05;;
19891;SDS011;10108;50.142;8.724;2023-06-26T07:26:01;17.17;;;10.80;;
19891;SDS011;10108;50.142;8.724;2023-06-26T07:28:27;18.63;;;11.98;;
19891;SDS011;10108;50.142;8.724;2023-06-26T07:30:53;19.23;;;13.15;;
19891;SDS011;10108;50.142;8.724;2023-06-26T07:33:19;15.88;;;11.68;;
19891;SDS011;10108;50.142;8.724;2023-06-26T07:35:46;16.02;;;10.98;;
19891;SDS011;10108;50.142;8.724;2023-06-26T07:38:12;15.73;;;11.27;;
19891;SDS011;10108;50.142;8.724;2023-06-26T07:40:38;16.90;;;11.90;;
19891;SDS011;10108;50.142;8.724;2023-06-26T07:43:04;16.30;;;10.80;;
19891;SDS011;10108;50.142;8.724;2023-06-26T07:45:31;14.90;;;11.13;;
19891;SDS011;10108;50.142;8.724;2023-06-26T07:47:57;16.80;;;11.30;;
19891;SDS011;10108;50.142;8.724;2023-06-26T07:50:24;14.95;;;11.25;;
19891;SDS011;10108;50.142;8.724;2023-06-26T07:52:50;17.52;;;10.48;;
19891;SDS011;10108;50.142;8.724;2023-06-26T07:55:17;17.10;;;10.95;;
19891;SDS011;10108;50.142;8.724;2023-06-26T07:57:43;13.50;;;10.77;;
19891;SDS011;10108;50.142;8.724;2023-06-26T08:00:11;13.93;;;10.25;;
19891;SDS011;10108;50.142;8.724;2023-06-26T08:02:40;14.88;;;10.13;;
19891;SDS011;10108;50.142;8.724;2023-06-26T08:05:07;19.98;;;11.75;;
19891;SDS011;10108;50.142;8.724;2023-06-26T08:07:33;14.27;;;11.10;;
19891;SDS011;10108;50.142;8.724;2023-06-26T08:09:59;16.52;;;11.85;;
19891;SDS011;10108;50.142;8.724;2023-06-26T08:12:25;12.68;;;10.52;;
19891;SDS011;10108;50.142;8.724;2023-06-26T08:14:51;15.50;;;11.20;;
19891;SDS011;10108;50.142;8.724;2023-06-26T08:17:17;14.85;;;11.32;;
19891;SDS011;10108;50.142;8.724;2023-06-26T08:19:43;14.15;;;11.27;;
19891;SDS011;10108;50.142;8.724;2023-06-26T08:22:09;14.50;;;10.45;;
19891;SDS011;10108;50.142;8.724;2023-06-26T08:24:36;12.15;;;10.43;;
19891;SDS011;10108;50.142;8.724;2023-06-26T08:27:02;13.93;;;9.85;;
19891;SDS011;10108;50.142;8.724;2023-06-26T08:29:29;15.27;;;10.80;;
19891;SDS011;10108;50.142;8.724;2023-06-26T08:31:55;12.57;;;9.82;;
19891;SDS011;10108;50.142;8.724;2023-06-26T08:34:21;13.68;;;9.63;;
19891;SDS011;10108;50.142;8.724;2023-06-26T08:36:47;14.68;;;10.48;;
19891;SDS011;10108;50.142;8.724;2023-06-26T08:39:13;15.13;;;11.23;;
19891;SDS011;10108;50.142;8.724;2023-06-26T08:41:39;14.10;;;10.63;;
19891;SDS011;10108;50.142;8.724;2023-06-26T08:44:06;11.60;;;9.45;;
19891;SDS011;10108;50.142;8.724;2023-06-26T08:46:32;15.05;;;10.60;;
19891;SDS011;10108;50.142;8.724;2023-06-26T08:49:13;13.05;;;10.27;;
19891;SDS011;10108;50.142;8.724;2023-06-26T08:51:56;13.95;;;9.60;;
19891;SDS011;10108;50.142;8.724;2023-06-26T08:54:28;11.18;;;9.15;;
19891;SDS011;10108;50.142;8.724;2023-06-26T08:57:00;16.65;;;10.70;;
19891;SDS011;10108;50.142;8.724;2023-06-26T08:59:28;14.30;;;10.75;;
19891;SDS011;10108;50.142;8.724;2023-06-26T09:01:54;17.05;;;10.90;;
19891;SDS011;10108;50.142;8.724;2023-06-26T09:04:21;18.73;;;11.10;;
19891;SDS011;10108;50.142;8.724;2023-06-26T09:06:47;13.55;;;10.02;;
19891;SDS011;10108;50.142;8.724;2023-06-26T09:09:13;12.73;;;9.50;;
19891;SDS011;10108;50.142;8.724;2023-06-26T09:11:39;13.63;;;10.52;;
19891;SDS011;10108;50.142;8.724;2023-06-26T09:14:05;16.77;;;10.98;;
19891;SDS011;10108;50.142;8.724;2023-06-26T09:16:39;15.73;;;10.93;;
19891;SDS011;10108;50.142;8.724;2023-06-26T09:19:08;14.88;;;11.48;;
19891;SDS011;10108;50.142;8.724;2023-06-26T09:21:38;15.73;;;10.73;;
19891;SDS011;10108;50.142;8.724;2023-06-26T09:24:05;13.13;;;8.77;;
19891;SDS011;10108;50.142;8.724;2023-06-26T09:26:35;14.60;;;9.63;;
19891;SDS011;10108;50.142;8.724;2023-06-26T09:29:02;14.55;;;9.43;;
19891;SDS011;10108;50.142;8.724;2023-06-26T09:31:29;13.70;;;10.73;;
19891;SDS011;10108;50.142;8.724;2023-06-26T09:33:58;13.82;;;10.55;;
19891;SDS011;10108;50.142;8.724;2023-06-26T09:36:27;14.38;;;9.55;;
19891;SDS011;10108;50.142;8.724;2023-06-26T09:38:54;12.13;;;10.00;;
19891;SDS011;10108;50.142;8.724;2023-06-26T09:41:21;12.10;;;10.10;;
19891;SDS011;10108;50.142;8.724;2023-06-26T09:43:48;12.20;;;10.20;;
19891;SDS011;10108;50.142;8.724;2023-06-26T09:46:16;11.95;;;9.35;;
19891;SDS011;10108;50.142;8.724;2023-06-26T09:48:43;12.50;;;9.70;;
19891;SDS011;10108;50.142;8.724;2023-06-26T09:51:09;14.18;;;10.60;;
19891;SDS011;10108;50.142;8.724;2023-06-26T09:53:36;15.00;;;11.23;;
19891;SDS011;10108;50.142;8.724;2023-06-26T09:56:06;19.35;;;10.80;;
19891;SDS011;10108;50.142;8.724;2023-06-26T09:58:32;12.45;;;9.88;;
19891;SDS011;10108;50.142;8.724;2023-06-26T10:00:59;13.38;;;10.27;;
19891;SDS011;10108;50.142;8.724;2023-06-26T10:03:26;11.50;;;9.52;;
19891;SDS011;10108;50.142;8.724;2023-06-26T10:05:52;12.38;;;10.30;;
19891;SDS011;10108;50.142;8.724;2023-06-26T10:08:20;13.77;;;10.02;;
19891;SDS011;10108;50.142;8.724;2023-06-26T10:10:46;13.93;;;9.90;;
19891;SDS011;10108;50.142;8.724;2023-06-26T10:13:34;14.85;;;10.10;;
19891;SDS011;10108;50.142;8.724;2023-06-26T10:16:03;13.57;;;10.52;;
19891;SDS011;10108;50.142;8.724;2023-06-26T10:18:33;13.10;;;10.23;;
19891;SDS011;10108;50.142;8.724;2023-06-26T10:21:01;11.82;;;9.27;;
19891;SDS011;10108;50.142;8.724;2023-06-26T10:23:28;11.80;;;10.25;;
19891;SDS011;10108;50.142;8.724;2023-06-26T10:25:58;14.30;;;10.68;;
19891;SDS011;10108;50.142;8.724;2023-06-26T10:28:26;13.60;;;10.68;;
19891;SDS011;10108;50.142;8.724;2023-06-26T10:30:56;12.55;;;8.50;;
19891;SDS011;10108;50.142;8.724;2023-06-26T10:33:24;14.43;;;10.88;;
19891;SDS011;10108;50.142;8.724;2023-06-26T10:35:50;13.57;;;10.75;;
19891;SDS011;10108;50.142;8.724;2023-06-26T10:38:17;12.13;;;10.50;;
19891;SDS011;10108;50.142;8.724;2023-06-26T10:40:44;13.75;;;10.70;;
19891;SDS011;10108;50.142;8.724;2023-06-26T10:43:12;12.48;;;9.95;;
19891;SDS011;10108;50.142;8.724;2023-06-26T10:45:47;14.68;;;10.00;;
19891;SDS011;10108;50.142;8.724;2023-06-26T10:48:18;13.38;;;10.40;;
19891;SDS011;10108;50.142;8.724;2023-06-26T10:50:47;13.48;;;10.73;;
19891;SDS011;10108;50.142;8.724;2023-06-26T11:03:37;17.15;;;10.07;;
19891;SDS011;10108;50.142;8.724;2023-06-26T11:08:46;12.80;;;10.13;;
19891;SDS011;10108;50.142;8.724;2023-06-26T11:11:15;13.07;;;9.50;;
19891;SDS011;10108;50.142;8.724;2023-06-26T11:13:42;15.30;;;11.27;;
19891;SDS011;10108;50.142;8.724;2023-06-26T11:16:36;11.48;;;9.57;;
19891;SDS011;10108;50.142;8.724;2023-06-26T11:19:28;12.07;;;10.07;;
19891;SDS011;10108;50.142;8.724;2023-06-26T11:22:20;11.02;;;8.35;;
19891;SDS011;10108;50.142;8.724;2023-06-26T11:25:15;12.05;;;10.15;;
19891;SDS011;10108;50.142;8.724;2023-06-26T11:28:09;11.60;;;9.85;;
19891;SDS011;10108;50.142;8.724;2023-06-26T11:30:37;11.60;;;9.55;;
19891;SDS011;10108;50.142;8.724;2023-06-26T11:33:07;15.15;;;10.73;;
19891;SDS011;10108;50.142;8.724;2023-06-26T11:36:08;12.40;;;9.77;;
19891;SDS011;10108;50.142;8.724;2023-06-26T11:39:00;15.82;;;10.35;;
19891;SDS011;10108;50.142;8.724;2023-06-26T11:41:53;14.20;;;10.95;;
19891;SDS011;10108;50.142;8.724;2023-06-26T11:44:48;15.43;;;10.02;;
19891;SDS011;10108;50.142;8.724;2023-06-26T11:48:05;11.13;;;9.57;;
19891;SDS011;10108;50.142;8.724;2023-06-26T11:50:31;11.43;;;8.85;;
19891;SDS011;10108;50.142;8.724;2023-06-26T11:53:03;12.25;;;8.80;;
19891;SDS011;10108;50.142;8.724;2023-06-26T11:55:39;11.88;;;9.32;;
19891;SDS011;10108;50.142;8.724;2023-06-26T11:58:07;14.00;;;8.98;;
19891;SDS011;10108;50.142;8.724;2023-06-26T12:00:33;10.00;;;8.02;;
19891;SDS011;10108;50.142;8.724;2023-06-26T12:02:59;16.17;;;8.35;;
19891;SDS011;10108;50.142;8.724;2023-06-26T12:05:29;14.00;;;8.98;;
19891;SDS011;10108;50.142;8.724;2023-06-26T12:08:02;11.18;;;9.35;;
19891;SDS011;10108;50.142;8.724;2023-06-26T12:10:32;14.43;;;9.50;;
19891;SDS011;10108;50.142;8.724;2023-06-26T12:12:59;17.13;;;10.00;;
19891;SDS011;10108;50.142;8.724;2023-06-26T12:15:26;12.05;;;9.20;;
19891;SDS011;10108;50.142;8.724;2023-06-26T12:17:54;10.70;;;8.50;;
19891;SDS011;10108;50.142;8.724;2023-06-26T12:20:21;17.30;;;10.57;;
19891;SDS011;10108;50.142;8.724;2023-06-26T12:22:48;11.50;;;9.23;;
19891;SDS011;10108;50.142;8.724;2023-06-26T12:25:15;11.82;;;9.38;;
19891;SDS011;10108;50.142;8.724;2023-06-26T12:27:46;10.77;;;8.23;;
19891;SDS011;10108;50.142;8.724;2023-06-26T12:30:12;10.75;;;8.52;;
19891;SDS011;10108;50.142;8.724;2023-06-26T12:32:39;13.18;;;9.18;;
19891;SDS011;10108;50.142;8.724;2023-06-26T12:35:05;16.38;;;10.25;;
19891;SDS011;10108;50.142;8.724;2023-06-26T12:37:36;13.13;;;10.48;;
19891;SDS011;10108;50.142;8.724;2023-06-26T12:40:03;16.17;;;10.13;;
19891;SDS011;10108;50.142;8.724;2023-06-26T12:42:32;16.80;;;10.48;;
19891;SDS011;10108;50.142;8.724;2023-06-26T12:44:59;15.88;;;10.57;;
19891;SDS011;10108;50.142;8.724;2023-06-26T12:47:35;13.38;;;9.98;;
19891;SDS011;10108;50.142;8.724;2023-06-26T12:50:06;16.25;;;11.18;;
19891;SDS011;10108;50.142;8.724;2023-06-26T12:52:33;18.23;;;11.07;;
19891;SDS011;10108;50.142;8.724;2023-06-26T12:54:59;14.43;;;10.45;;
19891;SDS011;10108;50.142;8.724;2023-06-26T12:57:25;14.50;;;10.55;;
19891;SDS011;10108;50.142;8.724;2023-06-26T12:59:52;19.00;;;10.68;;
19891;SDS011;10108;50.142;8.724;2023-06-26T13:02:18;13.05;;;10.70;;
19891;SDS011;10108;50.142;8.724;2023-06-26T13:04:44;14.38;;;11.02;;
19891;SDS011;10108;50.142;8.724;2023-06-26T13:07:11;13.75;;;10.32;;
19891;SDS011;10108;50.142;8.724;2023-06-26T13:09:37;16.30;;;10.57;;
19891;SDS011;10108;50.142;8.724;2023-06-26T13:12:06;16.50;;;10.30;;
19891;SDS011;10108;50.142;8.724;2023-06-26T13:14:32;16.27;;;10.95;;
19891;SDS011;10108;50.142;8.724;2023-06-26T13:17:00;15.90;;;11.07;;
19891;SDS011;10108;50.142;8.724;2023-06-26T13:19:26;16.17;;;10.15;;
19891;SDS011;10108;50.142;8.724;2023-06-26T13:21:52;13.60;;;9.95;;
19891;SDS011;10108;50.142;8.724;2023-06-26T13:24:19;12.20;;;9.50;;
19891;SDS011;10108;50.142;8.724;2023-06-26T13:26:46;11.43;;;8.48;;
19891;SDS011;10108;50.142;8.724;2023-06-26T13:29:12;12.98;;;9.93;;
19891;SDS011;10108;50.142;8.724;2023-06-26T13:31:38;14.32;;;9.82;;
19891;SDS011;10108;50.142;8.724;2023-06-26T13:34:04;11.60;;;8.95;;
19891;SDS011;10108;50.142;8.724;2023-06-26T13:36:31;13.02;;;9.18;;
19891;SDS011;10108;50.142;8.724;2023-06-26T13:38:59;12.55;;;9.63;;
19891;SDS011;10108;50.142;8.724;2023-06-26T13:41:25;12.18;;;9.65;;
19891;SDS011;10108;50.142;8.724;2023-06-26T13:43:52;11.25;;;8.40;;
19891;SDS011;10108;50.142;8.724;2023-06-26T13:46:18;8.23;;;7.40;;
19891;SDS011;10108;50.142;8.724;2023-06-26T13:48:44;11.85;;;8.60;;
19891;SDS011;10108;50.142;8.724;2023-06-26T13:51:11;13.32;;;8.30;;
19891;SDS011;10108;50.142;8.724;2023-06-26T13:53:38;12.45;;;8.93;;
19891;SDS011;10108;50.142;8.724;2023-06-26T13:56:04;17.85;;;8.75;;
19891;SDS011;10108;50.142;8.724;2023-06-26T13:58:30;12.20;;;9.20;;
19891;SDS011;10108;50.142;8.724;2023-06-26T14:00:58;13.85;;;9.07;;
19891;SDS011;10108;50.142;8.724;2023-06-26T14:03:26;10.70;;;8.13;;
19891;SDS011;10108;50.142;8.724;2023-06-26T14:05:53;13.30;;;8.77;;
19891;SDS011;10108;50.142;8.724;2023-06-26T14:08:19;15.07;;;8.70;;
19891;SDS011;10108;50.142;8.724;2023-06-26T14:10:45;11.63;;;7.93;;
19891;SDS011;10108;50.142;8.724;2023-06-26T14:13:11;11.15;;;8.18;;
19891;SDS011;10108;50.142;8.724;2023-06-26T14:15:40;11.63;;;8.80;;
19891;SDS011;10108;50.142;8.724;2023-06-26T14:18:07;13.25;;;8.55;;
19891;SDS011;10108;50.142;8.724;2023-06-26T14:20:34;12.32;;;8.77;;
19891;SDS011;10108;50.142;8.724;2023-06-26T14:23:01;11.15;;;8.00;;
19891;SDS011;10108;50.142;8.724;2023-06-26T14:25:27;10.05;;;7.50;;
19891;SDS011;10108;50.142;8.724;2023-06-26T14:27:58;10.52;;;7.30;;
19891;SDS011;10108;50.142;8.724;2023-06-26T14:30:24;11.25;;;7.78;;
19891;SDS011;10108;50.142;8.724;2023-06-26T14:32:50;11.45;;;7.68;;
19891;SDS011;10108;50.142;8.724;2023-06-26T14:35:17;10.73;;;8.07;;
19891;SDS011;10108;50.142;8.724;2023-06-26T14:37:43;11.88;;;7.80;;
19891;SDS011;10108;50.142;8.724;2023-06-26T14:40:09;11.48;;;7.80;;
19891;SDS011;10108;50.142;8.724;2023-06-26T14:42:36;15.23;;;8.10;;
19891;SDS011;10108;50.142;8.724;2023-06-26T14:45:02;12.25;;;8.07;;
19891;SDS011;10108;50.142;8.724;2023-06-26T14:47:29;13.60;;;8.10;;
19891;SDS011;10108;50.142;8.724;2023-06-26T14:49:55;10.50;;;7.28;;